Main page
METAR-TAF:

METAR-TAF

Airports :

Pärnu Airport

Pärnu, Estonia

latitude: 58-25-09N, longitude: 024-28-22E, elevation: 14 m

Current weather observation

The report was made 16 minutes ago, at 04:20 UTC
Wind 5 kt from the East
Temperature 17°C
Humidity 94%
Pressure 1017 hPa
Visibility 10 km or more

METAR: EEPU 150420Z AUTO 10005KT 9999 SCT120/// 17/16 Q1017

Time: 07:36 (04:36 UTC)

Forecast

The report was made 19 hours and 36 minutes ago, at 09:00 UTC
Forecast valid from 14 at 10 UTC to 14 at 16 UTC
Wind 5 kt from the East
Visibility 10 km or more
no clouds below 1500 m and no cumulonimbus

TAF: EEPU 140900Z 1410/1416 09005KT CAVOK

Weather observations and forecasts of more than 4000 airports (METAR and TAF reports).

The available stations are represented by yellow and red dots on the map.

Hover mouse over dot to see the name of the station.

Then click to see weather observations and forecasts.

To change the map : click on the green buttons with a black cross to zoom in, on the green button with a dash to zoom out, or on the green arrows for adjacent maps.


METAR-TAF: